Sacramento, CA (94287)

9:12 AM PDT on August 31, 2015 (GMT -0700)
APRSWXNET | | Change Station
CLOSE
Current Station
Personal Weather Station
Location: Sacramento, CA
Elevation: 18 ft
Nearby Weather Stations

Elev 18 ft 38.57 °N, 121.48 °W | Updated 27 minutes ago

Clear
Clear
67 °F
Feels Like 67 °F
N
1
Wind Variable Wind from East
Gusts 0.0 mph

Today
High -- | Low -- °F
--% Chance of Precip.
Yesterday
High -- | Low -- °F
Precip. -- in
6:34 AM 7:37 PM
Waning Gibbous, 95% visible
Pressure 29.92 in
Visibility 10.0 miles
Clouds Clear
Dew Point 56 °F
Humidity 68%
Rainfall in
Snow Depth Not available.
UV 2 out of 12
Pollen 8.20 out of 12
Air Quality Not available.
Flu Activity Not available.
METAR KSAC 311553Z AUTO 21003KT 10SM CLR 20/12 A2992 RMK AO2 SLP130 T02000122 TSNO
Pressure 29.92 in
Visibility 10.0 miles
Clouds Clear
Dew Point 56 °F
Humidity 68%
Rainfall in
Snow Depth Not available.
UV 2 out of 12
Pollen 8.20 out of 12
Air Quality Not available.
Flu Activity Not available.
METAR KSAC 311553Z AUTO 21003KT 10SM CLR 20/12 A2992 RMK AO2 SLP130 T02000122 TSNO

10-Day Weather Forecast

×

Almanac

Astronomy

Aug. 31, 2015 Rise Set
Actual Time
Civil Twilight
Nautical Twilight
Astronomical Twilight
Moon
Length of Visible Light
Length of Day
Tomorrow will be .
, % of the Moon is Illuminated

Today's Extremes

State Highs State Lows

Community

WunderPhotos

Upload Photos

1,851,301 photos uploaded!

WunderBlogs® & News

Nearby

Air Quality

  Air Quality AQ Index Pollutant
Not available.

Snow Depth

Station Depth Elevation

Earthquake Activity

City Distance Mag. Time & Date
Minimum magnitude displayed is 2.5.

Coastal Water Temperatures

Place Temperature

Stations

Nearby Weather Stations

Station Location Temp. Windchill Dew Point Humidity Wind Precip. Elev Updated Type